Time;durP1;ratioP1;P1;durP2;ratioP2;P2;SDS_P1;SDS_P2;PMS_P1;PMS_P2;Temp;Humidity;BMP_temperature;BMP_pressure;BME280_temperature;BME280_humidity;BME280_pressure;Samples;Min_cycle;Max_cycle;Signal;HPM_P1;HPM_P2
2022/04/27 00:00:55;;;;;;;3.80;1.60;;;;;;;14.51;41.36;100633.18;117524;1184;23469;-55
2022/04/27 00:03:24;;;;;;;3.00;1.90;;;;;;;14.51;41.42;100633.02;117563;1183;21852;-47
2022/04/27 00:05:52;;;;;;;3.80;1.90;;;;;;;14.49;41.34;100635.35;117465;1186;23468;-47
2022/04/27 00:08:20;;;;;;;5.50;2.00;;;;;;;14.47;41.42;100641.39;117518;1185;23547;-48
2022/04/27 00:10:50;;;;;;;2.70;1.40;;;;;;;14.46;41.49;100644.79;117492;1183;24159;-46
2022/04/27 00:13:18;;;;;;;5.30;1.70;;;;;;;14.46;41.59;100650.27;117559;1184;23474;-55
2022/04/27 00:15:52;;;;;;;3.30;1.60;;;;;;;14.46;41.51;100657.13;117298;1184;23471;-48
2022/04/27 00:18:21;;;;;;;5.00;1.80;;;;;;;14.47;41.57;100654.83;117484;1186;22974;-55
2022/04/27 00:20:51;;;;;;;3.40;1.60;;;;;;;14.47;41.66;100653.23;117502;1180;23480;-55
2022/04/27 00:23:25;;;;;;;5.00;1.80;;;;;;;14.47;41.61;100658.00;117387;1186;21839;-47
2022/04/27 00:25:55;;;;;;;3.00;1.80;;;;;;;14.46;41.72;100661.55;117504;1185;23445;-47
2022/04/27 00:28:23;;;;;;;4.90;1.70;;;;;;;14.45;41.60;100665.11;117564;1185;21931;-55
2022/04/27 00:30:55;;;;;;;2.60;1.50;;;;;;;14.45;41.74;100667.06;117500;1185;24169;-55
2022/04/27 00:33:25;;;;;;;3.90;1.90;;;;;;;14.45;41.85;100665.63;117500;1184;23675;-55
2022/04/27 00:35:54;;;;;;;4.10;1.80;;;;;;;14.46;41.71;100661.19;117500;1186;23551;-47
2022/04/27 00:38:24;;;;;;;3.20;1.70;;;;;;;14.46;41.81;100662.26;117446;1186;22904;-47
2022/04/27 00:40:54;;;;;;;4.10;1.80;;;;;;;14.43;41.77;100664.08;117383;1185;21842;-55
2022/04/27 00:43:40;;;;;;;2.90;1.90;;;;;;;14.39;41.78;100663.46;117519;1185;23581;-56
2022/04/27 00:46:12;;;;;;;3.90;2.40;;;;;;;14.34;41.79;100661.83;117516;1184;22911;-54
2022/04/27 00:48:43;;;;;;;3.80;2.10;;;;;;;14.32;41.85;100667.20;117387;1186;24703;-55
2022/04/27 00:51:14;;;;;;;3.20;2.00;;;;;;;14.29;41.87;100670.95;117433;1186;24171;-48
2022/04/27 00:53:43;;;;;;;4.90;2.20;;;;;;;14.28;41.93;100677.33;117414;1185;21864;-55
2022/04/27 00:56:12;;;;;;;4.10;1.90;;;;;;;14.26;41.89;100679.48;117454;1186;21921;-47
2022/04/27 00:58:44;;;;;;;3.80;2.10;;;;;;;14.21;41.87;100683.14;117428;1183;21857;-55
2022/04/27 01:01:20;;;;;;;4.40;2.30;;;;;;;14.17;41.94;100682.69;117388;1186;23496;-47
2022/04/27 01:03:51;;;;;;;3.60;2.30;;;;;;;14.12;41.97;100683.13;117420;1185;24267;-55
2022/04/27 01:06:21;;;;;;;3.40;2.00;;;;;;;14.09;42.00;100685.17;117468;1185;23452;-55
2022/04/27 01:08:50;;;;;;;4.00;2.40;;;;;;;14.04;41.89;100687.56;117462;1186;23648;-55
2022/04/27 01:11:28;;;;;;;3.90;2.10;;;;;;;14.02;42.02;100688.14;117435;1185;24164;-47
2022/04/27 01:13:56;;;;;;;4.50;2.30;;;;;;;13.99;42.07;100687.50;117421;1186;24266;-55
2022/04/27 01:16:26;;;;;;;3.00;2.00;;;;;;;13.94;41.98;100690.94;117496;1185;23671;-55
2022/04/27 01:18:54;;;;;;;3.50;2.00;;;;;;;13.91;42.04;100696.65;117443;1184;23557;-47
2022/04/27 01:21:26;;;;;;;4.60;2.40;;;;;;;13.87;42.04;100697.80;117525;1184;22959;-47
2022/04/27 01:23:54;;;;;;;4.00;2.20;;;;;;;13.83;42.08;100697.70;117434;1185;23570;-55
2022/04/27 01:26:23;;;;;;;3.30;2.50;;;;;;;13.79;42.11;100696.02;117498;1185;23445;-55
2022/04/27 01:28:51;;;;;;;3.20;2.30;;;;;;;13.73;41.98;100701.09;117515;1185;23472;-55
2022/04/27 01:31:19;;;;;;;3.70;2.80;;;;;;;13.65;42.06;100704.59;117554;1184;23550;-47
2022/04/27 01:33:48;;;;;;;4.50;2.40;;;;;;;13.58;42.01;100704.54;117508;1183;24286;-54
2022/04/27 01:36:16;;;;;;;4.00;2.60;;;;;;;13.51;42.15;100704.50;117546;1185;23458;-47
2022/04/27 01:38:45;;;;;;;5.50;2.40;;;;;;;13.45;42.17;100702.86;117502;1186;24155;-55
2022/04/27 01:41:14;;;;;;;4.20;2.30;;;;;;;13.40;42.26;100705.58;117515;1185;24141;-55
2022/04/27 01:43:42;;;;;;;5.50;2.40;;;;;;;13.35;42.29;100705.30;117578;1184;23653;-47
2022/04/27 01:46:11;;;;;;;4.30;2.20;;;;;;;13.31;42.38;100706.77;117545;1185;24133;-47
2022/04/27 01:48:40;;;;;;;4.90;2.60;;;;;;;13.24;42.51;100704.27;117587;1185;24156;-55
2022/04/27 01:51:09;;;;;;;3.90;2.60;;;;;;;13.16;42.37;100703.52;117538;1184;21855;-55
2022/04/27 01:56:24;;;;;;;4.10;2.60;;;;;;;12.98;42.56;100706.67;117500;1186;23560;-47
2022/04/27 01:58:52;;;;;;;4.20;3.00;;;;;;;12.90;42.50;100709.61;117506;1184;23493;-55
2022/04/27 02:01:21;;;;;;;3.40;2.50;;;;;;;12.86;42.47;100711.79;117497;1185;23469;-55
2022/04/27 02:03:51;;;;;;;3.30;2.40;;;;;;;12.81;42.59;100713.45;117482;1186;22854;-54
2022/04/27 02:06:20;;;;;;;4.80;2.90;;;;;;;12.78;42.65;100716.49;117600;1185;21849;-47
2022/04/27 02:08:49;;;;;;;4.50;2.70;;;;;;;12.76;42.62;100713.71;117508;1185;22346;-56
2022/04/27 02:11:24;;;;;;;4.00;2.80;;;;;;;12.72;42.59;100714.12;117572;1185;23547;-47
2022/04/27 02:13:57;;;;;;;5.30;2.80;;;;;;;12.68;42.68;100710.67;117497;1185;22523;-47
2022/04/27 02:16:27;;;;;;;3.80;2.60;;;;;;;12.64;42.79;100708.61;117538;1185;24165;-55
2022/04/27 02:18:56;;;;;;;3.80;2.70;;;;;;;12.61;42.98;100708.48;117522;1183;23477;-47
2022/04/27 02:21:28;;;;;;;3.80;2.40;;;;;;;12.59;42.90;100709.39;117428;1186;23550;-47
2022/04/27 02:23:57;;;;;;;5.40;3.20;;;;;;;12.55;42.89;100711.56;117446;1186;22800;-47
2022/04/27 02:26:25;;;;;;;5.10;3.30;;;;;;;12.51;42.85;100717.45;117492;1186;22787;-47
2022/04/27 02:28:53;;;;;;;7.40;3.80;;;;;;;12.48;42.97;100717.48;117498;1186;21848;-56
2022/04/27 02:31:22;;;;;;;5.50;3.20;;;;;;;12.47;43.05;100719.08;117565;1183;21908;-55
2022/04/27 02:33:50;;;;;;;6.00;3.20;;;;;;;12.47;43.10;100721.19;117357;1186;23550;-48
2022/04/27 02:36:19;;;;;;;7.20;3.20;;;;;;;12.47;43.13;100722.42;117582;1185;23550;-48
2022/04/27 02:38:47;;;;;;;6.10;3.70;;;;;;;12.47;43.13;100724.02;117478;1184;23560;-56
2022/04/27 02:41:17;;;;;;;6.60;3.00;;;;;;;12.45;43.24;100728.27;117452;1185;23580;-54
2022/04/27 02:43:45;;;;;;;5.70;3.60;;;;;;;12.46;43.23;100730.36;117415;1186;23550;-46
2022/04/27 02:46:14;;;;;;;4.50;3.30;;;;;;;12.49;43.31;100736.13;117444;1185;23569;-55
2022/04/27 02:51:48;;;;;;;7.60;3.50;;;;;;;12.54;43.28;100741.88;117435;1184;23569;-48
2022/04/27 02:51:49;;;;;;;6.70;3.70;;;;;;;12.61;43.20;100738.41;117498;1186;22637;-47
2022/04/27 02:54:21;;;;;;;5.60;3.70;;;;;;;12.53;43.32;100742.59;117498;1185;22922;-54
2022/04/27 02:56:49;;;;;;;6.80;3.70;;;;;;;12.46;43.30;100739.69;117536;1184;23468;-55
2022/04/27 02:59:21;;;;;;;6.30;3.40;;;;;;;12.43;43.38;100739.20;117430;1186;21903;-47
2022/04/27 03:01:51;;;;;;;8.10;3.10;;;;;;;12.43;43.23;100742.54;117492;1184;22639;-47
2022/04/27 03:04:19;;;;;;;5.60;3.30;;;;;;;12.42;43.33;100745.38;117532;1183;22162;-47
2022/04/27 03:06:48;;;;;;;6.50;3.20;;;;;;;12.42;43.37;100746.23;117518;1186;23586;-46
2022/04/27 03:09:16;;;;;;;8.50;3.70;;;;;;;12.42;43.43;100746.61;117338;1186;22832;-55
2022/04/27 03:11:44;;;;;;;9.60;3.40;;;;;;;12.43;43.36;100749.76;117416;1186;23548;-55
2022/04/27 03:14:16;;;;;;;5.00;3.60;;;;;;;12.43;43.49;100749.95;117380;1184;23551;-47
2022/04/27 03:16:46;;;;;;;14.20;4.10;;;;;;;12.44;43.60;100750.80;118962;1184;23518;-48
2022/04/27 03:19:15;;;;;;;9.60;3.40;;;;;;;12.43;43.38;100756.96;118443;1183;22700;-55
2022/04/27 03:21:44;;;;;;;11.00;4.10;;;;;;;12.42;43.46;100759.09;117437;1184;24148;-55
2022/04/27 03:24:15;;;;;;;;;;;;;;;12.44;43.49;100762.94;117384;1184;23544;-55
2022/04/27 03:26:43;;;;;;;11.90;3.30;;;;;;;12.45;43.76;100767.86;117404;1186;21860;-47
2022/04/27 03:29:11;;;;;;;16.50;3.40;;;;;;;12.47;43.58;100772.93;117478;1183;23444;-56
2022/04/27 03:31:41;;;;;;;12.90;4.00;;;;;;;12.51;43.70;100775.17;117377;1186;23459;-47
2022/04/27 03:34:10;;;;;;;16.80;4.40;;;;;;;12.56;43.76;100781.45;117425;1185;21840;-48
2022/04/27 03:36:38;;;;;;;11.10;3.40;;;;;;;12.61;43.84;100779.95;117487;1184;24159;-55
2022/04/27 03:39:06;;;;;;;17.10;4.60;;;;;;;12.68;43.84;100785.85;117360;1184;23533;-47
2022/04/27 03:41:57;;;;;;;18.20;4.30;;;;;;;12.73;43.92;100788.77;117382;1184;23449;-56
2022/04/27 03:44:25;;;;;;;13.80;3.80;;;;;;;12.80;44.04;100793.42;117462;1186;23030;-56
2022/04/27 03:46:54;;;;;;;14.10;3.70;;;;;;;12.85;44.04;100789.81;117508;1185;23436;-48
2022/04/27 03:49:22;;;;;;;9.20;3.90;;;;;;;12.91;44.00;100792.89;117552;1185;23472;-56
2022/04/27 03:51:51;;;;;;;7.60;4.20;;;;;;;12.99;44.13;100793.31;117494;1184;21850;-56
2022/04/27 03:54:19;;;;;;;5.40;3.40;;;;;;;13.05;44.22;100795.86;117454;1184;23453;-57
2022/04/27 03:56:48;;;;;;;11.60;3.80;;;;;;;13.09;44.16;100793.84;117474;1186;21978;-57
2022/04/27 03:59:16;;;;;;;6.40;3.50;;;;;;;13.15;44.25;100795.00;117538;1185;23823;-56
2022/04/27 04:01:46;;;;;;;12.90;3.80;;;;;;;13.19;44.21;100792.63;117477;1184;21850;-56
2022/04/27 04:04:14;;;;;;;5.30;3.80;;;;;;;13.22;44.31;100799.11;117557;1185;23459;-56
2022/04/27 04:06:43;;;;;;;8.20;3.70;;;;;;;13.27;44.38;100800.09;117620;1183;23445;-48
2022/04/27 04:09:12;;;;;;;8.40;4.10;;;;;;;13.30;44.33;100802.31;117356;1185;21881;-56
2022/04/27 04:11:40;;;;;;;7.00;3.60;;;;;;;13.36;44.52;100805.39;117527;1183;24142;-47
2022/04/27 04:14:08;;;;;;;6.20;3.80;;;;;;;13.44;44.58;100805.29;117329;1184;23570;-55
2022/04/27 04:16:39;;;;;;;8.40;3.90;;;;;;;13.51;44.62;100803.23;117491;1183;23592;-47
2022/04/27 04:19:10;;;;;;;5.90;4.20;;;;;;;13.57;44.51;100807.34;117496;1185;24177;-47
2022/04/27 04:21:38;;;;;;;6.40;3.60;;;;;;;13.67;44.82;100807.19;117326;1186;21842;-55
2022/04/27 04:24:13;;;;;;;7.00;3.80;;;;;;;13.79;44.87;100808.37;117378;1186;22794;-47
2022/04/27 04:29:42;;;;;;;6.60;3.70;;;;;;;14.04;44.99;100806.13;117468;1185;24145;-55
2022/04/27 04:32:10;;;;;;;5.60;4.20;;;;;;;14.15;44.86;100805.73;117496;1185;24697;-47
2022/04/27 04:34:50;;;;;;;4.60;3.60;;;;;;;14.26;44.89;100808.67;117389;1186;24154;-54
2022/04/27 04:37:19;;;;;;;5.90;3.50;;;;;;;14.38;44.92;100813.02;117488;1184;23699;-48
2022/04/27 04:39:49;;;;;;;4.90;4.00;;;;;;;14.51;45.05;100817.52;117303;1185;23448;-47
2022/04/27 04:42:22;;;;;;;4.90;3.60;;;;;;;14.60;44.99;100815.02;117501;1184;21849;-55
2022/04/27 04:44:50;;;;;;;5.20;4.40;;;;;;;14.65;44.96;100816.69;117528;1186;23471;-47
2022/04/27 04:47:19;;;;;;;10.40;4.20;;;;;;;14.71;44.95;100817.81;117524;1186;23444;-55
2022/04/27 04:49:47;;;;;;;5.20;3.50;;;;;;;14.78;44.92;100820.49;117534;1186;23458;-55
2022/04/27 04:52:15;;;;;;;7.10;4.00;;;;;;;14.81;44.93;100816.52;117487;1187;23482;-55
2022/04/27 04:54:44;;;;;;;5.50;3.60;;;;;;;14.87;45.06;100821.52;117536;1185;24159;-55
2022/04/27 04:57:12;;;;;;;7.90;3.60;;;;;;;15.00;45.20;100823.87;117541;1185;24165;-55
2022/04/27 04:59:44;;;;;;;4.90;3.60;;;;;;;15.21;45.15;100822.85;117507;1186;24248;-55
2022/04/27 05:02:12;;;;;;;8.10;4.20;;;;;;;15.36;45.11;100821.05;117468;1185;23550;-55
2022/04/27 05:04:41;;;;;;;6.00;3.50;;;;;;;15.56;45.36;100821.98;117464;1184;23544;-55
2022/04/27 05:07:11;;;;;;;7.00;3.50;;;;;;;15.79;45.43;100824.40;117386;1185;22912;-55
2022/04/27 05:09:40;;;;;;;9.30;3.40;;;;;;;15.99;45.42;100827.40;118623;1184;23550;-48
2022/04/27 05:12:09;;;;;;;6.30;3.50;;;;;;;16.22;45.41;100829.61;118175;1185;23480;-47
2022/04/27 05:14:41;;;;;;;6.20;3.20;;;;;;;16.45;45.48;100826.97;117380;1186;23551;-54
2022/04/27 05:17:10;;;;;;;5.70;3.50;;;;;;;16.70;45.42;100830.48;117325;1185;21964;-54
2022/04/27 05:19:39;;;;;;;5.70;3.20;;;;;;;16.94;45.46;100832.08;117466;1183;24148;-55
2022/04/27 05:22:07;;;;;;;4.30;3.20;;;;;;;17.17;45.38;100832.79;117336;1185;21948;-54
2022/04/27 05:24:36;;;;;;;4.50;2.90;;;;;;;17.35;45.30;100831.48;117543;1185;24782;-54
2022/04/27 05:27:05;;;;;;;5.00;3.60;;;;;;;17.52;45.33;100837.13;117334;1185;22922;-47
2022/04/27 05:32:21;;;;;;;4.80;3.10;;;;;;;17.85;45.14;100843.10;117491;1186;23550;-54
2022/04/27 05:34:53;;;;;;;4.30;2.60;;;;;;;17.97;45.01;100841.97;117297;1185;23700;-47
2022/04/27 05:37:21;;;;;;;5.30;3.10;;;;;;;18.07;45.02;100841.80;117720;1184;21872;-47
2022/04/27 05:39:50;;;;;;;5.20;3.10;;;;;;;18.15;44.86;100844.90;118200;1183;23548;-54
2022/04/27 05:42:19;;;;;;;4.00;2.60;;;;;;;18.25;44.96;100847.57;117356;1185;23552;-47
2022/04/27 05:44:55;;;;;;;6.90;3.30;;;;;;;18.43;45.09;100849.20;117304;1185;24263;-47
2022/04/27 05:47:25;;;;;;;6.20;2.90;;;;;;;18.60;44.96;100852.83;117413;1185;24168;-48
2022/04/27 05:49:54;;;;;;;4.80;2.50;;;;;;;18.74;44.83;100855.83;117551;1186;23653;-55
2022/04/27 05:52:23;;;;;;;5.20;3.10;;;;;;;18.88;44.83;100854.59;117503;1184;23596;-55
2022/04/27 05:54:53;;;;;;;5.20;2.60;;;;;;;19.01;44.78;100851.77;117384;1185;22287;-48
2022/04/27 05:57:21;;;;;;;7.10;2.40;;;;;;;19.18;44.87;100849.14;117538;1186;22613;-48
2022/04/27 05:59:50;;;;;;;4.00;1.90;;;;;;;19.37;44.92;100846.44;117474;1185;23560;-48
2022/04/27 06:02:18;;;;;;;2.90;2.00;;;;;;;19.54;44.97;100844.30;117513;1185;21858;-47
2022/04/27 06:04:47;;;;;;;3.00;1.90;;;;;;;19.72;44.82;100846.73;117534;1186;22982;-55
2022/04/27 06:07:15;;;;;;;5.10;2.20;;;;;;;19.89;44.81;100848.00;117542;1183;23555;-55
2022/04/27 06:09:48;;;;;;;2.50;1.90;;;;;;;20.10;44.88;100841.73;117386;1185;21856;-48
2022/04/27 06:12:16;;;;;;;3.30;1.90;;;;;;;20.32;44.92;100837.69;117514;1186;23467;-48
2022/04/27 06:14:44;;;;;;;3.80;2.30;;;;;;;20.60;44.95;100843.92;117538;1185;24165;-56
2022/04/27 06:17:13;;;;;;;2.50;1.70;;;;;;;20.81;44.85;100839.73;117585;1186;21856;-56
2022/04/27 06:19:43;;;;;;;2.80;1.80;;;;;;;21.03;44.59;100837.08;117494;1183;24155;-55
2022/04/27 06:22:12;;;;;;;4.30;2.10;;;;;;;21.24;44.51;100838.21;117372;1185;23519;-56
2022/04/27 06:24:40;;;;;;;2.80;1.50;;;;;;;21.43;44.52;100837.97;117481;1185;23503;-48
2022/04/27 06:27:13;;;;;;;2.60;1.40;;;;;;;21.61;44.49;100840.85;117354;1185;23472;-56
2022/04/27 06:29:42;;;;;;;2.00;1.40;;;;;;;21.73;44.33;100846.14;117512;1180;22921;-56
2022/04/27 06:32:11;;;;;;;2.20;1.40;;;;;;;21.85;44.33;100844.42;117530;1185;23479;-47
2022/04/27 06:34:41;;;;;;;2.50;1.30;;;;;;;22.00;44.16;100843.14;117501;1183;21969;-48
2022/04/27 06:37:09;;;;;;;2.80;1.60;;;;;;;22.19;44.18;100846.62;117588;1185;23442;-48
2022/04/27 06:39:38;;;;;;;2.20;1.40;;;;;;;22.42;44.04;100849.11;117485;1185;24268;-56
2022/04/27 06:42:07;;;;;;;2.40;1.50;;;;;;;22.68;44.05;100852.02;117521;1186;21899;-56
2022/04/27 06:44:35;;;;;;;1.80;1.20;;;;;;;22.88;43.96;100851.80;117574;1184;23536;-47
2022/04/27 06:47:04;;;;;;;5.00;1.90;;;;;;;23.09;43.84;100855.06;117397;1185;24141;-55
2022/04/27 06:49:32;;;;;;;8.40;2.80;;;;;;;23.36;43.85;100857.33;117538;1182;23557;-48
2022/04/27 06:52:04;;;;;;;4.00;1.80;;;;;;;23.60;43.65;100853.58;117407;1186;21846;-55
2022/04/27 06:54:32;;;;;;;2.10;1.60;;;;;;;23.84;43.67;100852.91;117474;1185;23538;-48
2022/04/27 06:57:01;;;;;;;3.70;1.50;;;;;;;24.01;43.45;100858.18;117462;1186;22277;-48
2022/04/27 06:59:30;;;;;;;2.90;1.50;;;;;;;24.21;43.46;100863.80;117437;1186;22839;-48
2022/04/27 07:01:59;;;;;;;2.40;1.30;;;;;;;24.45;43.42;100865.11;117436;1186;21848;-55
2022/04/27 07:04:33;;;;;;;3.20;1.30;;;;;;;24.65;43.21;100870.33;117537;1184;23469;-48
2022/04/27 07:07:04;;;;;;;2.60;1.40;;;;;;;24.80;43.13;100870.52;117466;1182;21858;-48
2022/04/27 07:09:32;;;;;;;2.90;1.50;;;;;;;24.90;42.80;100873.44;117527;1185;24139;-48
2022/04/27 07:12:01;;;;;;;2.40;1.60;;;;;;;24.87;42.36;100880.30;117415;1186;22985;-48
2022/04/27 07:14:33;;;;;;;2.40;1.30;;;;;;;24.75;42.21;100885.34;117403;1180;23022;-55
2022/04/27 07:17:03;;;;;;;2.60;1.30;;;;;;;24.80;42.67;100880.38;117424;1184;21857;-55
2022/04/27 07:19:34;;;;;;;1.70;1.20;;;;;;;25.03;42.71;100881.59;117446;1183;23260;-55
2022/04/27 07:22:05;;;;;;;3.40;1.40;;;;;;;25.19;42.26;100885.73;117594;1182;23693;-48
2022/04/27 07:24:34;;;;;;;2.50;1.30;;;;;;;25.30;42.39;100885.53;117315;1185;23628;-50
2022/04/27 07:27:06;;;;;;;3.40;1.40;;;;;;;25.45;42.33;100880.44;117439;1186;21890;-56
2022/04/27 07:29:35;;;;;;;2.30;1.50;;;;;;;25.56;42.05;100880.82;117608;1183;24175;-48
2022/04/27 07:32:04;;;;;;;1.60;1.20;;;;;;;25.71;42.13;100883.93;117610;1183;23631;-48
2022/04/27 07:34:36;;;;;;;2.10;1.20;;;;;;;25.91;42.29;100882.21;117562;1184;23560;-48
2022/04/27 07:37:05;;;;;;;3.00;1.30;;;;;;;26.18;42.12;100890.25;117430;1186;23566;-48
2022/04/27 07:39:34;;;;;;;1.80;1.10;;;;;;;26.49;42.10;100888.63;117614;1183;22609;-48
2022/04/27 07:42:04;;;;;;;1.80;1.10;;;;;;;26.71;41.86;100889.36;117678;1182;21848;-56
2022/04/27 07:44:32;;;;;;;2.50;1.50;;;;;;;26.74;41.52;100894.77;117514;1183;21846;-48
2022/04/27 07:47:01;;;;;;;4.40;1.30;;;;;;;26.78;41.34;100891.94;119411;1183;24225;-57
2022/04/27 07:49:29;;;;;;;6.30;1.80;;;;;;;26.80;41.16;100884.45;117524;1182;23548;-49
2022/04/27 07:51:59;;;;;;;1.90;1.10;;;;;;;27.01;41.44;100882.77;117571;1185;23563;-56
2022/04/27 07:54:36;;;;;;;2.00;1.60;;;;;;;27.18;41.20;100873.54;117537;1185;24008;-56
2022/04/27 07:57:04;;;;;;;1.80;1.20;;;;;;;27.25;41.01;100872.67;117513;1183;22751;-55
2022/04/27 07:59:40;;;;;;;2.80;1.30;;;;;;;27.35;40.97;100874.16;117446;1184;24167;-49
2022/04/27 08:02:09;;;;;;;1.30;1.10;;;;;;;27.58;41.02;100873.13;117506;1184;22919;-56
2022/04/27 08:04:37;;;;;;;3.70;1.40;;;;;;;27.86;41.01;100872.80;117473;1186;23560;-57
2022/04/27 08:07:10;;;;;;;3.60;1.30;;;;;;;28.04;40.85;100875.59;117698;1180;21920;-56
2022/04/27 08:09:38;;;;;;;2.30;1.10;;;;;;;28.16;40.76;100876.65;117515;1185;23690;-56
2022/04/27 08:12:06;;;;;;;1.40;1.10;;;;;;;28.31;40.61;100873.27;117548;1186;24148;-56
2022/04/27 08:14:36;;;;;;;2.20;1.50;;;;;;;28.41;40.41;100874.30;117587;1185;22521;-49
2022/04/27 08:17:05;;;;;;;2.60;1.90;;;;;;;28.70;40.63;100875.82;117535;1184;21856;-49
2022/04/27 08:19:33;;;;;;;3.00;1.80;;;;;;;28.95;40.30;100877.77;117588;1183;24164;-49
2022/04/27 08:22:02;;;;;;;3.70;1.70;;;;;;;29.10;40.21;100878.52;117563;1186;23591;-57
2022/04/27 08:24:40;;;;;;;3.10;1.40;;;;;;;29.15;39.88;100881.90;117528;1185;23569;-57
2022/04/27 08:27:08;;;;;;;2.90;1.20;;;;;;;29.23;39.92;100882.00;117579;1183;21846;-57
2022/04/27 08:29:37;;;;;;;1.70;1.30;;;;;;;29.34;39.61;100879.08;117532;1183;24228;-57
2022/04/27 08:32:08;;;;;;;3.40;1.40;;;;;;;29.28;39.38;100883.68;117547;1183;21845;-57
2022/04/27 08:34:36;;;;;;;8.10;1.70;;;;;;;29.30;39.51;100888.21;117568;1182;23563;-49
2022/04/27 08:37:05;;;;;;;1.90;1.50;;;;;;;29.45;39.29;100877.98;117506;1185;22506;-50
2022/04/27 08:39:34;;;;;;;3.50;1.50;;;;;;;29.48;39.21;100873.42;117580;1182;21836;-54
2022/04/27 08:42:02;;;;;;;2.40;1.60;;;;;;;29.67;39.27;100876.31;117548;1183;24156;-56
2022/04/27 08:44:31;;;;;;;2.60;1.40;;;;;;;29.94;39.12;100868.25;117564;1180;22920;-50
2022/04/27 08:46:59;;;;;;;1.90;1.40;;;;;;;30.15;39.04;100870.05;117517;1183;23540;-57
2022/04/27 08:49:33;;;;;;;2.00;1.10;;;;;;;30.28;38.74;100863.48;117378;1185;23685;-56
2022/04/27 08:52:05;;;;;;;3.20;1.40;;;;;;;30.17;38.33;100857.91;117415;1185;23548;-47
2022/04/27 08:54:33;;;;;;;4.30;2.10;;;;;;;30.13;38.28;100854.64;117476;1185;21855;-47
2022/04/27 08:57:04;;;;;;;2.80;1.50;;;;;;;30.12;38.03;100853.72;117369;1183;23519;-55
2022/04/27 08:59:32;;;;;;;8.70;1.50;;;;;;;30.23;38.30;100848.74;117543;1183;21846;-54
2022/04/27 09:02:24;;;;;;;3.10;1.60;;;;;;;30.46;38.15;100847.45;117496;1183;23566;-56
2022/04/27 09:05:15;;;;;;;1.60;1.30;;;;;;;30.61;38.15;100850.27;117651;1183;21839;-56
2022/04/27 09:07:46;;;;;;;1.60;1.20;;;;;;;31.00;38.23;100846.23;117484;1186;23445;-49
2022/04/27 09:10:15;;;;;;;2.70;1.20;;;;;;;31.32;38.22;100846.20;117433;1183;22772;-49
2022/04/27 09:12:49;;;;;;;5.00;1.60;;;;;;;31.52;38.21;100848.88;117420;1185;22923;-49
2022/04/27 09:15:25;;;;;;;4.60;1.60;;;;;;;31.77;38.11;100848.39;117456;1184;23563;-49
2022/04/27 09:20:54;;;;;;;1.80;1.20;;;;;;;32.25;37.85;100853.83;117579;1183;22908;-49
2022/04/27 09:23:40;;;;;;;2.40;1.50;;;;;;;32.47;37.70;100849.56;117574;1182;21862;-50
2022/04/27 09:26:16;;;;;;;1.90;1.50;;;;;;;32.68;37.66;100849.06;117477;1183;22893;-50
2022/04/27 09:28:47;;;;;;;1.50;1.20;;;;;;;32.91;37.60;100845.77;117467;1185;21920;-50
2022/04/27 09:31:30;;;;;;;1.60;1.10;;;;;;;33.11;37.30;100848.68;117409;1185;22921;-50
2022/04/27 09:34:02;;;;;;;5.60;1.30;;;;;;;33.00;36.88;100845.04;117575;1185;21858;-51
2022/04/27 09:36:30;;;;;;;1.90;1.10;;;;;;;32.97;36.97;100846.96;117475;1185;21850;-49
2022/04/27 09:38:58;;;;;;;3.00;1.50;;;;;;;33.20;37.24;100850.48;117500;1185;23564;-56
2022/04/27 09:41:45;;;;;;;1.90;1.40;;;;;;;33.42;37.10;100847.87;117543;1180;24168;-49
2022/04/27 09:44:28;;;;;;;1.60;1.30;;;;;;;33.56;36.89;100846.38;117572;1185;21853;-50
2022/04/27 09:47:02;;;;;;;2.30;1.50;;;;;;;33.61;36.69;100848.94;117643;1183;21852;-53
2022/04/27 09:49:31;;;;;;;5.50;1.50;;;;;;;33.58;36.37;100846.50;117532;1183;23581;-54
2022/04/27 09:52:06;;;;;;;2.40;1.20;;;;;;;33.45;35.92;100850.75;117546;1183;22912;-49
2022/04/27 09:54:36;;;;;;;5.00;1.40;;;;;;;33.34;36.22;100854.34;117351;1185;25184;-50
2022/04/27 09:57:08;;;;;;;1.60;1.40;;;;;;;33.44;36.09;100852.70;117466;1184;23547;-49
2022/04/27 09:59:39;;;;;;;2.10;1.20;;;;;;;33.43;35.80;100846.96;117467;1184;21856;-57
2022/04/27 10:02:10;;;;;;;1.80;1.30;;;;;;;33.34;35.54;100848.57;117442;1183;23560;-57
2022/04/27 10:04:40;;;;;;;3.50;1.30;;;;;;;33.13;35.56;100844.83;117516;1183;21849;-55
2022/04/27 10:07:15;;;;;;;4.20;1.40;;;;;;;33.07;35.54;100841.78;117561;1185;23544;-51
2022/04/27 10:09:45;;;;;;;2.80;1.40;;;;;;;33.14;35.44;100843.64;117557;1183;23608;-50
2022/04/27 10:12:14;;;;;;;2.00;1.50;;;;;;;33.38;35.58;100845.61;117452;1185;23559;-50
2022/04/27 10:14:45;;;;;;;2.10;1.40;;;;;;;33.70;35.79;100846.38;117326;1180;23608;-49
2022/04/27 10:17:15;;;;;;;1.90;1.40;;;;;;;33.75;35.17;100848.23;117526;1179;23551;-56
2022/04/27 10:19:48;;;;;;;2.20;1.40;;;;;;;33.54;34.81;100849.98;117367;1185;21862;-49
2022/04/27 10:22:34;;;;;;;2.20;1.20;;;;;;;33.22;34.55;100851.05;117531;1183;21884;-56
2022/04/27 10:25:06;;;;;;;1.80;1.40;;;;;;;33.00;34.45;100848.52;117471;1185;22620;-50
2022/04/27 10:27:40;;;;;;;2.20;1.50;;;;;;;32.72;34.38;100848.54;117542;1185;21957;-50
2022/04/27 10:30:11;;;;;;;1.90;1.40;;;;;;;32.49;34.35;100844.38;117485;1186;22795;-50
2022/04/27 10:32:50;;;;;;;2.10;1.50;;;;;;;32.06;33.99;100845.26;117486;1185;23579;-49
2022/04/27 10:35:27;;;;;;;8.50;2.20;;;;;;;31.73;34.00;100843.33;117560;1186;22972;-56
2022/04/27 10:38:05;;;;;;;2.80;1.60;;;;;;;31.56;34.04;100846.92;117513;1183;23963;-57
2022/04/27 10:40:43;;;;;;;1.60;1.20;;;;;;;31.61;34.21;100847.17;117484;1184;22639;-57
2022/04/27 10:43:28;;;;;;;3.00;1.40;;;;;;;31.68;33.95;100848.71;117568;1180;22919;-57
2022/04/27 10:45:59;;;;;;;2.90;1.20;;;;;;;31.69;34.11;100848.02;117609;1183;24166;-57
2022/04/27 10:48:45;;;;;;;2.50;1.50;;;;;;;31.72;33.91;100848.71;117432;1186;21845;-51
2022/04/27 10:51:13;;;;;;;1.60;1.20;;;;;;;31.46;33.48;100844.91;117590;1183;23467;-56
2022/04/27 10:53:44;;;;;;;2.20;1.20;;;;;;;31.27;33.57;100842.90;117483;1186;23300;-50
2022/04/27 10:56:32;;;;;;;3.40;1.40;;;;;;;30.95;33.33;100843.20;117397;1184;23564;-58
2022/04/27 10:59:02;;;;;;;4.00;1.70;;;;;;;30.76;33.32;100841.52;117518;1183;23573;-56
2022/04/27 11:01:34;;;;;;;14.30;2.40;;;;;;;30.65;33.38;100843.57;117504;1183;23547;-50
2022/04/27 11:04:07;;;;;;;4.00;1.80;;;;;;;30.47;33.16;100842.28;117530;1183;23547;-49
2022/04/27 11:07:02;;;;;;;2.50;1.30;;;;;;;30.26;33.28;100837.80;117644;1183;21854;-55
2022/04/27 11:10:04;;;;;;;1.90;1.40;;;;;;;30.21;33.40;100840.39;117548;1185;21858;-56
2022/04/27 11:12:36;;;;;;;2.50;1.20;;;;;;;30.21;33.35;100834.97;117556;1183;22213;-55
2022/04/27 11:15:07;;;;;;;4.90;1.50;;;;;;;30.20;33.43;100832.90;117522;1182;23442;-50
2022/04/27 11:17:40;;;;;;;2.40;1.40;;;;;;;30.23;33.33;100831.15;117486;1185;23672;-52
2022/04/27 11:20:27;;;;;;;3.60;1.70;;;;;;;30.17;33.11;100828.45;117567;1183;24170;-56
2022/04/27 11:22:56;;;;;;;4.60;1.60;;;;;;;30.06;32.99;100827.42;117768;1182;21862;-50
2022/04/27 11:25:33;;;;;;;1.50;1.20;;;;;;;29.91;32.92;100825.44;117556;1183;21907;-55
2022/04/27 11:28:07;;;;;;;2.70;1.50;;;;;;;29.78;32.90;100825.99;117507;1186;23547;-49
2022/04/27 11:30:36;;;;;;;2.00;1.20;;;;;;;29.69;32.79;100822.77;117451;1186;23580;-55
2022/04/27 11:33:04;;;;;;;2.70;1.50;;;;;;;29.56;32.69;100824.08;117464;1184;23560;-49
2022/04/27 11:35:49;;;;;;;1.50;1.20;;;;;;;29.38;32.68;100825.08;117503;1186;23551;-56
2022/04/27 11:38:18;;;;;;;2.20;1.40;;;;;;;29.32;32.79;100823.23;117562;1185;23439;-55
2022/04/27 11:40:49;;;;;;;1.80;1.20;;;;;;;29.30;32.82;100812.76;117576;1184;21999;-55
2022/04/27 11:43:24;;;;;;;2.40;1.50;;;;;;;29.40;32.78;100807.23;117503;1186;23663;-54
2022/04/27 11:45:54;;;;;;;4.50;1.60;;;;;;;29.45;32.81;100802.48;117512;1186;24167;-55